Time;durP1;ratioP1;P1;durP2;ratioP2;P2;SDS_P1;SDS_P2;PMS_P1;PMS_P2;Temp;Humidity;BMP_temperature;BMP_pressure;BME280_temperature;BME280_humidity;BME280_pressure;Samples;Min_cycle;Max_cycle;Signal;HPM_P1;HPM_P2
2023/01/02 00:01:28;;;;;;;6.65;2.70;;;;;;;;;;5052635;28;20035;-33
2023/01/02 00:03:55;;;;;;;8.38;2.42;;;;;;;;;;5052693;28;20179;-34
2023/01/02 00:06:22;;;;;;;3.60;2.33;;;;;;;;;;5052638;28;20033;-34
2023/01/02 00:08:50;;;;;;;7.82;2.30;;;;;;;;;;5052529;28;20087;-33
2023/01/02 00:11:17;;;;;;;4.05;2.50;;;;;;;;;;5052348;28;20044;-35
2023/01/02 00:13:43;;;;;;;48.40;3.90;;;;;;;;;;5052520;28;20029;-37
2023/01/02 00:16:10;;;;;;;9.55;2.13;;;;;;;;;;5052542;28;20040;-34
2023/01/02 00:18:37;;;;;;;3.45;2.30;;;;;;;;;;5052379;28;20475;-34
2023/01/02 00:21:05;;;;;;;22.60;2.63;;;;;;;;;;5052619;28;20082;-35
2023/01/02 00:23:32;;;;;;;3.20;2.15;;;;;;;;;;5052320;28;20502;-36
2023/01/02 00:25:59;;;;;;;6.57;2.17;;;;;;;;;;5052353;28;20083;-34
2023/01/02 00:28:26;;;;;;;4.90;2.20;;;;;;;;;;5052236;28;20467;-34
2023/01/02 00:30:53;;;;;;;4.75;2.40;;;;;;;;;;5052271;28;20025;-35
2023/01/02 00:33:20;;;;;;;3.40;2.05;;;;;;;;;;5052042;28;20086;-34
2023/01/02 00:35:47;;;;;;;5.30;2.42;;;;;;;;;;5052162;28;20031;-34
2023/01/02 00:38:14;;;;;;;4.03;2.22;;;;;;;;;;5052117;28;20025;-36
2023/01/02 00:40:41;;;;;;;3.45;2.40;;;;;;;;;;5052177;28;20032;-33
2023/01/02 00:43:08;;;;;;;2.80;2.40;;;;;;;;;;5052060;28;20051;-35
2023/01/02 00:45:35;;;;;;;6.18;2.80;;;;;;;;;;5051275;28;20527;-34
2023/01/02 00:48:02;;;;;;;8.65;3.28;;;;;;;;;;5051885;28;20032;-34
2023/01/02 00:50:29;;;;;;;7.60;2.95;;;;;;;;;;5052005;28;20504;-35
2023/01/02 00:52:56;;;;;;;11.82;3.42;;;;;;;;;;5051821;28;20029;-35
2023/01/02 00:55:23;;;;;;;12.02;3.65;;;;;;;;;;5051967;28;20025;-33
2023/01/02 00:57:50;;;;;;;6.60;3.38;;;;;;;;;;5051810;28;20110;-34
2023/01/02 01:00:17;;;;;;;7.50;3.60;;;;;;;;;;5051811;28;20059;-35
2023/01/02 01:02:44;;;;;;;11.65;4.13;;;;;;;;;;5051778;28;20029;-36
2023/01/02 01:05:11;;;;;;;10.23;3.80;;;;;;;;;;5051922;28;20056;-35
2023/01/02 01:07:38;;;;;;;6.55;3.75;;;;;;;;;;5051779;28;20051;-33
2023/01/02 01:10:05;;;;;;;7.25;3.13;;;;;;;;;;5051789;28;20060;-36
2023/01/02 01:12:32;;;;;;;5.72;3.30;;;;;;;;;;5051654;28;20033;-34
2023/01/02 01:14:59;;;;;;;6.03;3.25;;;;;;;;;;5051732;28;20025;-37
2023/01/02 01:17:26;;;;;;;8.23;3.25;;;;;;;;;;5051746;28;20017;-37
2023/01/02 01:19:53;;;;;;;8.65;3.53;;;;;;;;;;5051684;28;20025;-39
2023/01/02 01:22:20;;;;;;;5.70;3.13;;;;;;;;;;5051510;28;20112;-35
2023/01/02 01:24:47;;;;;;;5.05;2.75;;;;;;;;;;5051683;28;20559;-34
2023/01/02 01:27:14;;;;;;;8.20;3.05;;;;;;;;;;5051646;28;20029;-33
2023/01/02 01:29:40;;;;;;;3.92;3.00;;;;;;;;;;5051616;28;20025;-33
2023/01/02 01:32:07;;;;;;;5.20;3.05;;;;;;;;;;5051340;28;20032;-35
2023/01/02 01:34:34;;;;;;;5.53;3.13;;;;;;;;;;5051453;28;20040;-34
2023/01/02 01:37:01;;;;;;;6.25;2.88;;;;;;;;;;5051597;28;20029;-34
2023/01/02 01:39:28;;;;;;;6.78;2.97;;;;;;;;;;5051508;28;20033;-35
2023/01/02 01:41:55;;;;;;;4.55;2.60;;;;;;;;;;5051308;28;20040;-33
2023/01/02 01:44:42;;;;;;;4.78;2.70;;;;;;;;;;5051317;28;20106;-35
2023/01/02 01:47:17;;;;;;;4.05;2.45;;;;;;;;;;5051475;28;20052;-34
2023/01/02 01:49:45;;;;;;;5.70;2.65;;;;;;;;;;5051429;28;20029;-35
2023/01/02 01:52:15;;;;;;;7.18;2.60;;;;;;;;;;5051198;28;20037;-35
2023/01/02 01:54:45;;;;;;;3.60;2.17;;;;;;;;;;5051276;28;20025;-34
2023/01/02 01:57:20;;;;;;;6.35;2.70;;;;;;;;;;5051996;28;20029;-34
2023/01/02 01:59:48;;;;;;;3.30;2.30;;;;;;;;;;5055073;28;20492;-35
2023/01/02 02:02:16;;;;;;;6.07;2.80;;;;;;;;;;5054901;28;20057;-34
2023/01/02 02:04:44;;;;;;;3.47;2.33;;;;;;;;;;5055010;28;20038;-36
2023/01/02 02:07:11;;;;;;;7.82;2.50;;;;;;;;;;5054945;28;20424;-33
2023/01/02 02:09:46;;;;;;;4.22;2.45;;;;;;;;;;5054920;28;20037;-35
2023/01/02 02:12:16;;;;;;;4.30;2.15;;;;;;;;;;5054708;28;20044;-35
2023/01/02 02:14:43;;;;;;;3.45;2.10;;;;;;;;;;5054762;28;20064;-34
2023/01/02 02:17:28;;;;;;;4.95;2.05;;;;;;;;;;5054788;28;20056;-33
2023/01/02 02:19:58;;;;;;;5.03;2.30;;;;;;;;;;5053565;28;20025;-37
2023/01/02 02:22:57;;;;;;;8.82;2.53;;;;;;;;;;5052034;28;20098;-39
2023/01/02 02:26:03;;;;;;;10.80;2.05;;;;;;;;;;5031219;28;20064;-35
2023/01/02 02:28:47;;;;;;;9.85;2.67;;;;;;;;;;4994907;28;20393;-36
2023/01/02 02:31:20;;;;;;;10.23;2.40;;;;;;;;;;5004786;28;20041;-35
2023/01/02 02:33:59;;;;;;;19.40;2.63;;;;;;;;;;5026176;28;20037;-37
2023/01/02 02:36:30;;;;;;;20.05;2.83;;;;;;;;;;5046779;28;20029;-36
2023/01/02 02:39:17;;;;;;;10.57;2.72;;;;;;;;;;5049509;28;20166;-36
2023/01/02 02:42:15;;;;;;;7.53;2.50;;;;;;;;;;5051231;28;20025;-36
2023/01/02 02:44:48;;;;;;;17.75;2.72;;;;;;;;;;5018472;28;20076;-35
2023/01/02 02:47:23;;;;;;;144.02;8.75;;;;;;;;;;5050081;28;20040;-34
2023/01/02 02:50:05;;;;;;;9.05;2.35;;;;;;;;;;5047579;28;20025;-35
2023/01/02 02:52:45;;;;;;;9.43;2.53;;;;;;;;;;5050432;28;20032;-34
2023/01/02 02:55:12;;;;;;;13.30;2.50;;;;;;;;;;5053184;28;20032;-34
2023/01/02 02:57:40;;;;;;;7.95;2.15;;;;;;;;;;5053207;28;20065;-35
2023/01/02 03:00:08;;;;;;;10.18;2.42;;;;;;;;;;5052310;28;20024;-34
2023/01/02 03:02:36;;;;;;;7.22;2.45;;;;;;;;;;5048840;28;20451;-35
2023/01/02 03:05:04;;;;;;;7.72;2.53;;;;;;;;;;5051270;28;20035;-33
2023/01/02 03:07:37;;;;;;;3.60;2.00;;;;;;;;;;5043566;28;20025;-34
2023/01/02 03:10:10;;;;;;;5.60;2.30;;;;;;;;;;5034694;28;20021;-35
2023/01/02 03:12:37;;;;;;;16.80;2.22;;;;;;;;;;5034073;28;20026;-36
2023/01/02 03:15:14;;;;;;;10.48;2.22;;;;;;;;;;5036113;28;20587;-34
2023/01/02 03:17:44;;;;;;;10.40;2.55;;;;;;;;;;5034625;28;20032;-34
2023/01/02 03:20:14;;;;;;;5.68;2.30;;;;;;;;;;5032069;28;20021;-34
2023/01/02 03:22:43;;;;;;;5.90;2.15;;;;;;;;;;5031945;28;20052;-34
2023/01/02 03:25:13;;;;;;;6.43;1.90;;;;;;;;;;5036333;28;20056;-38
2023/01/02 03:27:44;;;;;;;3.80;2.00;;;;;;;;;;5035843;28;20030;-38
2023/01/02 03:30:16;;;;;;;17.80;2.20;;;;;;;;;;5052627;28;20036;-35
2023/01/02 03:32:50;;;;;;;9.27;2.13;;;;;;;;;;5052410;28;20047;-34
2023/01/02 03:35:19;;;;;;;7.53;2.22;;;;;;;;;;5052089;28;20032;-36
2023/01/02 03:37:49;;;;;;;5.75;1.90;;;;;;;;;;5052439;28;20032;-36
2023/01/02 03:40:19;;;;;;;8.38;2.10;;;;;;;;;;5052163;28;20578;-36
2023/01/02 03:42:50;;;;;;;4.72;2.17;;;;;;;;;;5050423;28;20052;-37
2023/01/02 03:45:29;;;;;;;6.88;2.10;;;;;;;;;;5047680;28;20139;-37
2023/01/02 03:48:16;;;;;;;10.77;2.67;;;;;;;;;;5050814;28;20605;-36
2023/01/02 03:50:47;;;;;;;14.20;2.25;;;;;;;;;;5020283;28;20033;-36
2023/01/02 03:53:14;;;;;;;20.92;2.85;;;;;;;;;;5051954;28;20060;-36
2023/01/02 03:55:43;;;;;;;6.15;2.60;;;;;;;;;;5052215;28;20032;-35
2023/01/02 03:58:22;;;;;;;4.40;2.40;;;;;;;;;;5052012;28;20024;-36
2023/01/02 04:01:10;;;;;;;5.72;2.38;;;;;;;;;;5051801;28;20479;-37
2023/01/02 04:03:44;;;;;;;9.32;2.13;;;;;;;;;;5048368;28;20537;-35
2023/01/02 04:06:13;;;;;;;3.95;2.00;;;;;;;;;;5051889;28;20025;-36
2023/01/02 04:08:58;;;;;;;5.78;2.10;;;;;;;;;;5051489;28;20025;-38
2023/01/02 04:11:26;;;;;;;4.70;1.90;;;;;;;;;;5047688;28;20113;-37
2023/01/02 04:13:59;;;;;;;7.63;2.60;;;;;;;;;;5051644;28;20029;-35
2023/01/02 04:16:29;;;;;;;4.60;2.22;;;;;;;;;;5050326;28;20105;-36
2023/01/02 04:18:58;;;;;;;4.70;2.20;;;;;;;;;;5051650;28;20033;-35
2023/01/02 04:21:28;;;;;;;5.30;2.17;;;;;;;;;;5050081;28;20040;-35
2023/01/02 04:24:15;;;;;;;4.32;1.90;;;;;;;;;;5050924;28;20387;-38
2023/01/02 04:26:48;;;;;;;3.65;2.10;;;;;;;;;;5050160;28;20021;-36
2023/01/02 04:29:15;;;;;;;6.15;2.35;;;;;;;;;;5048647;28;20028;-36
2023/01/02 04:31:51;;;;;;;4.97;2.10;;;;;;;;;;5049424;28;20166;-36
2023/01/02 04:34:19;;;;;;;8.55;2.47;;;;;;;;;;5051165;28;20017;-36
2023/01/02 04:36:46;;;;;;;3.90;2.08;;;;;;;;;;5051456;28;20191;-37
2023/01/02 04:39:13;;;;;;;3.33;2.30;;;;;;;;;;5051253;28;20025;-35
2023/01/02 04:41:41;;;;;;;5.13;2.47;;;;;;;;;;5051356;28;20048;-36
2023/01/02 04:44:08;;;;;;;5.15;2.03;;;;;;;;;;5050990;28;20025;-36
2023/01/02 04:46:35;;;;;;;4.85;2.17;;;;;;;;;;5050040;28;20036;-36
2023/01/02 04:49:02;;;;;;;3.00;2.10;;;;;;;;;;5051177;28;20025;-36
2023/01/02 04:51:29;;;;;;;3.72;2.40;;;;;;;;;;5040489;28;20036;-37
2023/01/02 04:53:56;;;;;;;3.15;2.30;;;;;;;;;;5040382;28;20025;-37
2023/01/02 04:56:23;;;;;;;2.92;2.00;;;;;;;;;;5041518;28;20518;-36
2023/01/02 04:58:50;;;;;;;2.55;2.00;;;;;;;;;;5039642;28;20021;-35
2023/01/02 05:01:19;;;;;;;2.90;1.88;;;;;;;;;;5045890;28;20111;-36
2023/01/02 05:03:47;;;;;;;6.75;2.05;;;;;;;;;;5046734;28;20033;-36
2023/01/02 05:06:15;;;;;;;3.35;2.10;;;;;;;;;;5046794;28;20025;-35
2023/01/02 05:08:42;;;;;;;3.20;2.20;;;;;;;;;;5042561;28;20025;-35
2023/01/02 05:11:19;;;;;;;3.88;1.92;;;;;;;;;;5042642;28;20029;-36
2023/01/02 05:13:46;;;;;;;3.58;1.90;;;;;;;;;;5039669;28;20033;-36
2023/01/02 05:16:13;;;;;;;3.78;2.10;;;;;;;;;;5044343;28;20032;-36
2023/01/02 05:18:41;;;;;;;4.40;2.30;;;;;;;;;;5041667;28;20529;-37
2023/01/02 05:23:57;;;;;;;4.22;1.77;;;;;;;;;;5042213;28;20063;-36
2023/01/02 05:26:25;;;;;;;4.70;1.90;;;;;;;;;;5040527;28;20419;-36
2023/01/02 05:28:53;;;;;;;2.78;2.10;;;;;;;;;;5042424;28;20040;-36
2023/01/02 05:31:23;;;;;;;3.92;2.03;;;;;;;;;;5043593;28;20430;-38
2023/01/02 05:33:53;;;;;;;6.63;1.92;;;;;;;;;;5047809;28;20450;-35
2023/01/02 05:36:20;;;;;;;2.17;1.70;;;;;;;;;;5051205;28;20428;-36
2023/01/02 05:38:47;;;;;;;5.72;2.00;;;;;;;;;;5055223;28;20025;-35
2023/01/02 05:41:15;;;;;;;4.32;2.25;;;;;;;;;;5042310;28;20041;-36
2023/01/02 05:43:42;;;;;;;5.30;1.90;;;;;;;;;;5050330;28;20468;-36
2023/01/02 05:46:15;;;;;;;6.40;1.80;;;;;;;;;;5046703;28;20079;-35
2023/01/02 05:48:42;;;;;;;5.10;2.10;;;;;;;;;;5045244;28;20476;-35
2023/01/02 05:51:10;;;;;;;4.25;1.88;;;;;;;;;;5045407;28;20029;-36
2023/01/02 05:53:37;;;;;;;3.75;1.90;;;;;;;;;;5047422;28;20395;-35
2023/01/02 05:56:05;;;;;;;2.28;1.70;;;;;;;;;;5045208;28;20440;-38
2023/01/02 05:58:35;;;;;;;3.60;2.05;;;;;;;;;;5044605;28;20032;-34
2023/01/02 06:01:09;;;;;;;4.43;1.80;;;;;;;;;;5037361;28;20546;-34
2023/01/02 06:03:37;;;;;;;4.97;1.95;;;;;;;;;;5047706;28;20044;-34
2023/01/02 06:06:10;;;;;;;3.65;2.15;;;;;;;;;;5035995;28;20037;-34
2023/01/02 06:08:38;;;;;;;3.53;2.00;;;;;;;;;;5050273;28;20025;-34
2023/01/02 06:11:05;;;;;;;4.63;2.00;;;;;;;;;;5042958;28;20116;-33
2023/01/02 06:13:33;;;;;;;3.13;2.00;;;;;;;;;;5034740;28;20187;-35
2023/01/02 06:16:01;;;;;;;3.80;2.10;;;;;;;;;;5034812;28;20048;-35
2023/01/02 06:18:28;;;;;;;4.85;1.70;;;;;;;;;;5047236;28;20017;-34
2023/01/02 06:21:02;;;;;;;2.65;1.98;;;;;;;;;;5052982;28;20487;-34
2023/01/02 06:23:29;;;;;;;4.43;2.03;;;;;;;;;;5051721;28;20032;-36
2023/01/02 06:26:01;;;;;;;2.88;1.95;;;;;;;;;;5044271;28;20025;-36
2023/01/02 06:28:28;;;;;;;7.60;2.15;;;;;;;;;;5046806;28;20025;-37
2023/01/02 06:30:59;;;;;;;4.32;2.20;;;;;;;;;;5052077;28;20037;-36
2023/01/02 06:33:26;;;;;;;3.80;2.00;;;;;;;;;;5054072;28;20044;-34
2023/01/02 06:36:00;;;;;;;4.80;2.10;;;;;;;;;;5052811;28;20036;-33
2023/01/02 06:38:27;;;;;;;4.35;2.03;;;;;;;;;;5040308;28;20071;-33
2023/01/02 06:40:58;;;;;;;3.92;2.00;;;;;;;;;;5042912;28;20064;-33
2023/01/02 06:43:26;;;;;;;5.75;2.25;;;;;;;;;;5043479;28;20033;-33
2023/01/02 06:45:54;;;;;;;4.45;2.15;;;;;;;;;;5053648;28;20103;-34
2023/01/02 06:48:21;;;;;;;3.97;1.98;;;;;;;;;;5037541;28;20028;-33
2023/01/02 06:50:48;;;;;;;2.30;1.75;;;;;;;;;;5035154;28;20025;-36
2023/01/02 06:53:15;;;;;;;4.45;2.00;;;;;;;;;;5034224;28;20038;-36
2023/01/02 06:55:55;;;;;;;2.92;2.22;;;;;;;;;;5035520;28;20388;-34
2023/01/02 06:58:22;;;;;;;2.38;2.13;;;;;;;;;;5034804;28;20041;-35
2023/01/02 07:00:50;;;;;;;4.05;2.30;;;;;;;;;;5050304;28;20025;-34
2023/01/02 07:03:17;;;;;;;3.10;2.10;;;;;;;;;;5034187;28;20030;-33
2023/01/02 07:05:48;;;;;;;3.33;2.10;;;;;;;;;;5034882;28;20025;-33
2023/01/02 07:08:14;;;;;;;4.43;2.45;;;;;;;;;;5032546;28;20116;-34
2023/01/02 07:10:41;;;;;;;6.65;2.53;;;;;;;;;;5034871;28;20038;-33
2023/01/02 07:13:08;;;;;;;3.63;2.38;;;;;;;;;;5036930;28;20032;-34
2023/01/02 07:15:35;;;;;;;3.92;2.45;;;;;;;;;;5053443;28;20487;-34
2023/01/02 07:18:02;;;;;;;3.75;2.85;;;;;;;;;;5042764;28;20038;-33
2023/01/02 07:20:29;;;;;;;3.63;2.45;;;;;;;;;;5043403;28;20022;-33
2023/01/02 07:22:56;;;;;;;4.88;2.60;;;;;;;;;;5040383;28;20482;-33
2023/01/02 07:25:23;;;;;;;4.07;2.30;;;;;;;;;;5046538;28;20132;-36
2023/01/02 07:27:53;;;;;;;2.50;2.20;;;;;;;;;;5052330;28;20096;-36
2023/01/02 07:30:20;;;;;;;2.20;2.00;;;;;;;;;;5034218;28;20228;-37
2023/01/02 07:32:47;;;;;;;3.55;2.50;;;;;;;;;;5036896;28;20061;-36
2023/01/02 07:35:14;;;;;;;3.17;2.08;;;;;;;;;;5033545;28;20032;-36
2023/01/02 07:37:41;;;;;;;3.38;2.70;;;;;;;;;;5034965;28;20033;-36
2023/01/02 07:40:08;;;;;;;2.58;2.25;;;;;;;;;;5045074;28;20106;-37
2023/01/02 07:42:35;;;;;;;4.47;2.70;;;;;;;;;;5053029;28;20090;-34
2023/01/02 07:45:02;;;;;;;6.05;2.80;;;;;;;;;;5043306;28;20048;-33
2023/01/02 07:47:29;;;;;;;6.03;2.50;;;;;;;;;;5039810;28;20045;-34
2023/01/02 07:49:56;;;;;;;5.38;2.72;;;;;;;;;;5033543;28;20415;-34
2023/01/02 07:52:23;;;;;;;4.97;2.47;;;;;;;;;;5048500;28;20060;-34
2023/01/02 07:54:50;;;;;;;5.18;2.45;;;;;;;;;;5049431;28;20057;-33
2023/01/02 07:57:17;;;;;;;3.75;2.30;;;;;;;;;;5048928;28;20124;-33
2023/01/02 07:59:45;;;;;;;4.60;2.17;;;;;;;;;;5044932;28;20017;-34
2023/01/02 08:02:12;;;;;;;5.82;2.28;;;;;;;;;;5045542;28;20029;-34
2023/01/02 08:04:39;;;;;;;4.55;2.70;;;;;;;;;;5037988;28;20040;-34
2023/01/02 08:07:06;;;;;;;3.03;2.00;;;;;;;;;;5043770;28;20099;-35
2023/01/02 08:09:33;;;;;;;5.78;2.65;;;;;;;;;;5036432;28;20120;-34
2023/01/02 08:12:00;;;;;;;2.75;1.95;;;;;;;;;;5037936;28;20025;-34
2023/01/02 08:14:27;;;;;;;3.28;2.17;;;;;;;;;;5046954;28;20021;-33
2023/01/02 08:16:54;;;;;;;5.00;2.17;;;;;;;;;;5040960;28;20033;-34
2023/01/02 08:19:21;;;;;;;2.65;2.20;;;;;;;;;;5044067;28;20063;-34
2023/01/02 08:21:48;;;;;;;2.20;2.00;;;;;;;;;;5039312;28;20052;-33
2023/01/02 08:24:15;;;;;;;6.60;2.28;;;;;;;;;;5050706;28;20076;-33
2023/01/02 08:26:42;;;;;;;3.67;2.20;;;;;;;;;;5050129;28;20048;-36
2023/01/02 08:29:09;;;;;;;3.15;2.15;;;;;;;;;;5039291;28;20036;-36
2023/01/02 08:31:37;;;;;;;7.00;2.28;;;;;;;;;;5048724;28;20042;-33
2023/01/02 08:34:04;;;;;;;2.85;2.00;;;;;;;;;;5050912;28;20028;-33
2023/01/02 08:36:31;;;;;;;4.50;2.00;;;;;;;;;;5038760;28;20033;-33
2023/01/02 08:38:58;;;;;;;2.63;2.13;;;;;;;;;;5038585;28;20029;-34
2023/01/02 08:41:32;;;;;;;4.43;2.30;;;;;;;;;;5044438;28;20033;-33
2023/01/02 08:44:00;;;;;;;3.35;2.15;;;;;;;;;;5045539;28;20108;-34
2023/01/02 08:46:27;;;;;;;2.70;2.00;;;;;;;;;;5031839;28;20063;-34
2023/01/02 08:48:54;;;;;;;3.40;2.08;;;;;;;;;;5043571;28;20029;-36
2023/01/02 08:51:21;;;;;;;2.90;2.08;;;;;;;;;;5036896;28;20491;-34
2023/01/02 08:53:48;;;;;;;3.67;1.90;;;;;;;;;;5049340;28;20106;-34
2023/01/02 08:56:19;;;;;;;6.97;2.10;;;;;;;;;;5043091;28;20029;-33
2023/01/02 08:58:49;;;;;;;3.35;1.90;;;;;;;;;;5039678;28;20091;-33
2023/01/02 09:01:16;;;;;;;3.45;2.13;;;;;;;;;;5044650;28;20766;-37
2023/01/02 09:03:43;;;;;;;4.70;2.20;;;;;;;;;;5047077;28;20388;-34
2023/01/02 09:06:10;;;;;;;3.78;2.50;;;;;;;;;;5041659;28;20385;-33
2023/01/02 09:08:37;;;;;;;5.40;2.38;;;;;;;;;;5041987;28;20029;-34
2023/01/02 09:11:30;;;;;;;3.58;2.10;;;;;;;;;;5043213;28;20071;-36
2023/01/02 09:13:58;;;;;;;4.53;2.30;;;;;;;;;;5031792;28;20454;-33
2023/01/02 09:16:25;;;;;;;5.47;2.30;;;;;;;;;;5043904;28;20049;-34
2023/01/02 09:18:53;;;;;;;3.95;2.08;;;;;;;;;;5047965;28;20348;-33
2023/01/02 09:21:19;;;;;;;5.57;2.20;;;;;;;;;;5041839;28;20101;-34
2023/01/02 09:23:46;;;;;;;5.53;2.40;;;;;;;;;;5046614;28;20108;-33
2023/01/02 09:26:14;;;;;;;3.45;2.08;;;;;;;;;;5046424;28;20114;-34
2023/01/02 09:28:41;;;;;;;4.72;2.22;;;;;;;;;;5033733;28;20060;-34
2023/01/02 09:31:09;;;;;;;3.10;1.90;;;;;;;;;;5033454;28;20037;-33
2023/01/02 09:33:36;;;;;;;3.15;2.00;;;;;;;;;;5046735;28;20502;-33
2023/01/02 09:36:04;;;;;;;6.80;2.13;;;;;;;;;;5043582;28;20033;-33
2023/01/02 09:38:31;;;;;;;3.05;1.55;;;;;;;;;;5043970;28;20028;-34
2023/01/02 09:40:59;;;;;;;3.28;1.80;;;;;;;;;;5045996;28;20442;-34
2023/01/02 09:43:37;;;;;;;6.50;1.67;;;;;;;;;;5049780;28;20496;-33
2023/01/02 09:46:05;;;;;;;3.47;1.40;;;;;;;;;;5044818;28;20079;-35
2023/01/02 09:48:35;;;;;;;4.28;1.30;;;;;;;;;;5047189;28;20383;-34
2023/01/02 09:51:02;;;;;;;4.60;1.50;;;;;;;;;;5042880;28;20026;-33
2023/01/02 09:53:29;;;;;;;3.65;1.13;;;;;;;;;;5032396;28;20442;-34
2023/01/02 09:56:08;;;;;;;2.90;1.08;;;;;;;;;;5048682;28;20519;-33
2023/01/02 09:58:44;;;;;;;3.03;0.98;;;;;;;;;;5039640;28;20078;-34
2023/01/02 10:01:34;;;;;;;2.17;0.80;;;;;;;;;;5049647;28;20151;-36
2023/01/02 10:04:04;;;;;;;4.13;0.75;;;;;;;;;;5038688;28;20041;-34
2023/01/02 10:06:38;;;;;;;3.03;0.70;;;;;;;;;;5050471;28;20495;-33
2023/01/02 10:09:05;;;;;;;1.83;0.88;;;;;;;;;;5043291;28;20064;-33
2023/01/02 10:11:38;;;;;;;4.93;0.90;;;;;;;;;;5048285;28;20025;-35
2023/01/02 10:14:05;;;;;;;8.77;0.98;;;;;;;;;;5045697;28;20039;-34
2023/01/02 10:16:37;;;;;;;6.03;0.80;;;;;;;;;;5048704;28;20021;-33
2023/01/02 10:19:03;;;;;;;;;;;;;;;;;;5046795;28;20553;-34
2023/01/02 10:21:33;;;;;;;3.72;0.70;;;;;;;;;;5045270;28;20279;-35
2023/01/02 10:24:17;;;;;;;6.60;0.90;;;;;;;;;;5043087;28;20082;-35
2023/01/02 10:26:47;;;;;;;3.00;0.73;;;;;;;;;;5052577;28;20044;-33
2023/01/02 10:29:14;;;;;;;6.78;0.80;;;;;;;;;;5053385;28;20040;-35
2023/01/02 10:31:47;;;;;;;4.97;0.60;;;;;;;;;;5045191;28;20052;-35
2023/01/02 10:34:16;;;;;;;6.97;0.90;;;;;;;;;;5046632;28;20099;-33
2023/01/02 10:36:44;;;;;;;6.72;0.80;;;;;;;;;;5035849;28;20048;-33
2023/01/02 10:39:16;;;;;;;5.20;0.63;;;;;;;;;;5050522;28;20036;-33
2023/01/02 10:41:46;;;;;;;8.55;0.70;;;;;;;;;;5047221;28;20035;-35
2023/01/02 10:44:26;;;;;;;3.05;0.70;;;;;;;;;;5046166;28;20064;-33
2023/01/02 10:46:53;;;;;;;5.80;0.57;;;;;;;;;;5036397;28;20038;-33
2023/01/02 10:49:20;;;;;;;4.57;0.73;;;;;;;;;;5037388;28;20500;-33
2023/01/02 10:52:05;;;;;;;2.22;0.75;;;;;;;;;;5052937;28;20059;-34
2023/01/02 10:54:47;;;;;;;6.50;0.80;;;;;;;;;;5052114;28;20029;-34
2023/01/02 10:57:19;;;;;;;7.33;0.80;;;;;;;;;;5052288;28;20033;-34
2023/01/02 10:59:46;;;;;;;5.72;0.70;;;;;;;;;;5042015;28;20037;-34
2023/01/02 11:02:25;;;;;;;4.45;0.70;;;;;;;;;;5044602;28;20043;-33
2023/01/02 11:04:52;;;;;;;4.20;0.60;;;;;;;;;;5038285;28;20065;-37
2023/01/02 11:07:25;;;;;;;4.13;0.77;;;;;;;;;;5034761;28;20079;-33
2023/01/02 11:09:56;;;;;;;9.20;1.02;;;;;;;;;;5041664;28;20086;-34
2023/01/02 11:12:23;;;;;;;9.50;0.60;;;;;;;;;;5049925;28;20037;-34
2023/01/02 11:14:50;;;;;;;5.15;0.60;;;;;;;;;;5050718;28;20039;-34
2023/01/02 11:17:19;;;;;;;4.28;0.80;;;;;;;;;;5038518;28;20813;-35
2023/01/02 11:19:47;;;;;;;5.25;0.82;;;;;;;;;;5047276;28;20113;-38
2023/01/02 11:22:16;;;;;;;9.18;0.80;;;;;;;;;;5049673;28;20388;-34
2023/01/02 11:24:49;;;;;;;8.27;0.93;;;;;;;;;;5040532;28;20419;-34
2023/01/02 11:27:16;;;;;;;2.75;0.73;;;;;;;;;;5050680;28;20040;-34
2023/01/02 11:29:45;;;;;;;5.47;0.73;;;;;;;;;;5045048;28;20095;-33
2023/01/02 11:32:21;;;;;;;6.78;0.80;;;;;;;;;;5045253;28;20083;-34
2023/01/02 11:35:01;;;;;;;1.98;0.70;;;;;;;;;;5037133;28;20036;-35
2023/01/02 11:37:28;;;;;;;6.15;0.60;;;;;;;;;;5045020;28;20036;-33
2023/01/02 11:39:59;;;;;;;5.25;0.80;;;;;;;;;;5052937;28;20028;-35
2023/01/02 11:45:19;;;;;;;8.88;0.63;;;;;;;;;;5052645;28;20062;-33
2023/01/02 11:47:51;;;;;;;3.70;0.57;;;;;;;;;;5042592;28;20029;-34
2023/01/02 11:50:25;;;;;;;7.23;0.50;;;;;;;;;;5032888;28;20033;-35
2023/01/02 11:52:55;;;;;;;6.30;0.60;;;;;;;;;;5043081;28;20053;-34
2023/01/02 11:55:25;;;;;;;6.60;0.60;;;;;;;;;;5050617;28;20032;-33
2023/01/02 11:57:57;;;;;;;11.25;0.93;;;;;;;;;;5046627;28;20080;-33
2023/01/02 12:00:27;;;;;;;6.70;0.70;;;;;;;;;;5050581;28;20041;-34
2023/01/02 12:02:57;;;;;;;5.07;0.70;;;;;;;;;;5048232;28;20040;-33
2023/01/02 12:05:38;;;;;;;3.72;0.80;;;;;;;;;;5043401;28;20033;-35
2023/01/02 12:08:10;;;;;;;3.80;0.90;;;;;;;;;;5032732;28;20076;-36
2023/01/02 12:10:49;;;;;;;7.87;0.87;;;;;;;;;;5040216;28;20539;-34
2023/01/02 12:13:16;;;;;;;10.90;1.00;;;;;;;;;;5020554;28;20128;-35
2023/01/02 12:15:49;;;;;;;7.68;1.08;;;;;;;;;;5029874;28;20491;-34
2023/01/02 12:18:16;;;;;;;7.43;1.08;;;;;;;;;;5030959;28;20045;-36
2023/01/02 12:21:00;;;;;;;8.32;0.95;;;;;;;;;;5028841;28;20033;-36
2023/01/02 12:23:33;;;;;;;3.88;0.80;;;;;;;;;;5030124;28;20483;-34
2023/01/02 12:26:03;;;;;;;5.65;0.88;;;;;;;;;;5030862;28;20017;-36
2023/01/02 12:28:35;;;;;;;2.60;0.77;;;;;;;;;;5030530;28;20075;-36
2023/01/02 12:31:21;;;;;;;2.70;0.90;;;;;;;;;;5027636;28;20064;-35
2023/01/02 12:34:06;;;;;;;5.10;0.80;;;;;;;;;;5030726;28;20123;-36
2023/01/02 12:36:48;;;;;;;9.20;0.70;;;;;;;;;;5036684;28;20399;-39
2023/01/02 12:39:29;;;;;;;4.25;0.73;;;;;;;;;;5030499;28;20037;-34
2023/01/02 12:42:02;;;;;;;5.13;0.90;;;;;;;;;;5026134;28;20079;-35
2023/01/02 12:44:29;;;;;;;2.97;0.70;;;;;;;;;;5044451;28;20403;-37
2023/01/02 12:47:14;;;;;;;3.80;0.63;;;;;;;;;;5031630;28;20171;-35
2023/01/02 12:49:53;;;;;;;2.80;0.75;;;;;;;;;;5030480;28;20037;-35
2023/01/02 12:52:30;;;;;;;4.32;0.90;;;;;;;;;;5032906;28;20049;-38
2023/01/02 12:55:04;;;;;;;5.45;0.80;;;;;;;;;;5030110;28;20055;-38
2023/01/02 12:57:36;;;;;;;2.05;0.70;;;;;;;;;;5029929;28;20503;-33
2023/01/02 13:00:14;;;;;;;3.10;0.75;;;;;;;;;;5028437;28;20206;-34
2023/01/02 13:02:56;;;;;;;4.32;0.70;;;;;;;;;;5027343;28;21070;-35
2023/01/02 13:05:28;;;;;;;3.00;0.73;;;;;;;;;;5029866;28;20060;-33
2023/01/02 13:08:18;;;;;;;7.25;0.90;;;;;;;;;;5028235;28;20387;-35
2023/01/02 13:10:46;;;;;;;7.80;1.17;;;;;;;;;;4995525;28;20188;-38
2023/01/02 13:13:13;;;;;;;4.18;0.85;;;;;;;;;;5029478;28;20037;-37
2023/01/02 13:15:42;;;;;;;6.28;1.00;;;;;;;;;;5029790;28;20563;-35
2023/01/02 13:18:24;;;;;;;13.50;0.90;;;;;;;;;;5028417;28;20115;-34
2023/01/02 13:20:55;;;;;;;6.75;1.05;;;;;;;;;;5032696;28;20041;-40
2023/01/02 13:23:31;;;;;;;4.78;0.80;;;;;;;;;;5028769;28;20120;-40
2023/01/02 13:26:00;;;;;;;13.90;1.20;;;;;;;;;;5028090;28;20393;-43
2023/01/02 13:28:28;;;;;;;10.00;1.17;;;;;;;;;;5029722;28;20068;-39
2023/01/02 13:30:59;;;;;;;6.38;0.85;;;;;;;;;;5025933;28;20037;-37
2023/01/02 13:33:40;;;;;;;9.75;1.17;;;;;;;;;;5029002;28;20088;-39
2023/01/02 13:36:25;;;;;;;3.53;0.90;;;;;;;;;;5028379;28;20094;-40
2023/01/02 13:38:53;;;;;;;10.50;1.17;;;;;;;;;;5029562;28;20037;-40
2023/01/02 13:41:20;;;;;;;9.45;0.90;;;;;;;;;;5024632;28;20094;-39
2023/01/02 13:43:51;;;;;;;3.90;0.70;;;;;;;;;;5028600;28;20489;-36
2023/01/02 13:46:23;;;;;;;38.92;2.88;;;;;;;;;;5029460;28;20073;-43
2023/01/02 13:48:52;;;;;;;3.65;0.93;;;;;;;;;;5026449;28;20032;-42
2023/01/02 13:51:23;;;;;;;8.52;1.00;;;;;;;;;;5025525;28;20037;-45
2023/01/02 13:53:51;;;;;;;2.85;0.80;;;;;;;;;;5031327;28;20136;-49
2023/01/02 13:56:20;;;;;;;5.63;0.80;;;;;;;;;;5032530;28;20045;-50
2023/01/02 13:58:46;;;;;;;3.08;0.70;;;;;;;;;;5033915;28;21304;-46
2023/01/02 14:01:23;;;;;;;7.07;0.95;;;;;;;;;;5029512;28;20114;-45
2023/01/02 14:04:18;;;;;;;6.57;0.75;;;;;;;;;;5033529;28;20440;-45
2023/01/02 14:06:48;;;;;;;1.75;0.60;;;;;;;;;;5023126;28;20504;-44
2023/01/02 14:09:19;;;;;;;3.80;0.80;;;;;;;;;;5032951;28;20119;-47
2023/01/02 14:11:58;;;;;;;5.45;0.80;;;;;;;;;;5029407;28;20037;-47
2023/01/02 14:14:37;;;;;;;2.10;0.73;;;;;;;;;;5033187;28;21339;-49
2023/01/02 14:17:22;;;;;;;5.38;0.60;;;;;;;;;;5030140;28;20045;-50
2023/01/02 14:20:09;;;;;;;2.75;0.90;;;;;;;;;;5033954;28;20036;-41
2023/01/02 14:22:43;;;;;;;2.10;0.60;;;;;;;;;;5029611;28;20036;-41
2023/01/02 14:25:11;;;;;;;1.92;0.50;;;;;;;;;;5031610;28;20095;-42
2023/01/02 14:27:38;;;;;;;3.03;0.88;;;;;;;;;;5030231;28;20036;-43
2023/01/02 14:30:07;;;;;;;4.35;0.93;;;;;;;;;;5031802;28;20045;-41
2023/01/02 14:32:34;;;;;;;4.65;0.60;;;;;;;;;;5028778;28;20541;-41
2023/01/02 14:35:04;;;;;;;5.75;0.85;;;;;;;;;;5032681;28;20103;-42
2023/01/02 14:37:30;;;;;;;8.98;0.70;;;;;;;;;;5030982;28;20037;-42
2023/01/02 14:40:09;;;;;;;5.10;0.63;;;;;;;;;;5033226;28;20590;-41
2023/01/02 14:45:22;;;;;;;3.05;0.90;;;;;;;;;;5033500;28;20174;-44
2023/01/02 14:47:54;;;;;;;5.00;0.82;;;;;;;;;;5031683;28;20043;-44
2023/01/02 14:50:26;;;;;;;7.68;0.88;;;;;;;;;;5031439;28;21603;-41
2023/01/02 14:53:02;;;;;;;2.85;0.70;;;;;;;;;;5028985;28;20580;-44
2023/01/02 14:55:30;;;;;;;4.70;0.70;;;;;;;;;;5032628;28;20118;-42
2023/01/02 14:57:59;;;;;;;13.35;1.20;;;;;;;;;;5032093;28;20033;-42
2023/01/02 15:00:38;;;;;;;5.85;1.15;;;;;;;;;;5034591;28;20037;-43
2023/01/02 15:03:19;;;;;;;1.95;0.63;;;;;;;;;;5030102;28;20067;-41
2023/01/02 15:05:49;;;;;;;3.78;0.73;;;;;;;;;;5030439;28;20052;-41
2023/01/02 15:08:17;;;;;;;18.98;1.92;;;;;;;;;;5029915;28;20059;-42
2023/01/02 15:10:54;;;;;;;10.32;0.90;;;;;;;;;;5030241;28;20056;-43
2023/01/02 15:13:21;;;;;;;7.50;0.85;;;;;;;;;;5030628;28;20948;-43